Hayt Corners, New York
Current Conditions -  °F | °C
As of 2:53 AM on Sunday 23 Nov 2014 (Local Time) from KPEO Reporting Station
Overcast Overcast  
Wind Chill: 42°   Ceiling: 4700
Heat Index: 48°   Visibility: 10mi
Dew Point: 37°   Wind: 16mph
Humidity: 66%   Direction: 220°SW
Pressure: 30.03"   Gusts: 23mph
Location:  42.6756°N, 76.8051°W
Report Text: KPEO 230753Z AUTO 22014G20KT 10SM BKN047 BKN070 OVC085 09/03 A3003 RMK AO2 SLP173 T00890028
Loading
Personal Weather Stations






























Interactive Weather Map New forecast layout! Learn more

10-Day Weather Forecast

Advertisements
Track Severe Weather on mobile